Wasco, CA

8:12 AM PDT on August 21, 2014 (GMT -0700)
Hanford Municipal | Change Station
CLOSE
Current Station
Airport
Location: Hanford,
Elevation: 243 ft
Nearby Weather Stations

Elev 243 ft 36.32 °N, 119.63 °W | Updated 19 minutes ago

Clear
Clear
67 °F
Feels Like 67 °F
N
4
Wind Variable Wind from WNW

Today
High -- | Low -- °F
--% Chance of Precip.
Yesterday
High -- | Low -- °F
Precip. -- in
6:21 AM 7:39 PM
Waning Crescent, 14% visible
Pressure 29.93 in
Visibility 10.0 miles
Clouds Clear
Dew Point 56 °F
Humidity 68%
Rainfall 0.00 in
Snow Depth Not available.
UV 1 out of 12
Pollen 7.50 out of 12
Ozone Good
PM2.5 Good
Flu Activity Not available.
METAR KHJO 211453Z AUTO 29003KT 10SM CLR 19/13 A2993 RMK AO2 SLP135 T01940133 53017

More Conditions Fewer Conditions

Pressure 29.93 in
Visibility 10.0 miles
Clouds Clear
Dew Point 56 °F
Humidity 68%
Rainfall 0.00 in
Snow Depth Not available.
UV 1 out of 12
Pollen 7.50 out of 12
Ozone Good
PM2.5 Good
Flu Activity Not available.
METAR KHJO 211453Z AUTO 29003KT 10SM CLR 19/13 A2993 RMK AO2 SLP135 T01940133 53017

More Conditions Fewer Conditions

10-Day Weather Forecast

Almanac

Astronomy

Aug. 21, 2014 Rise Set
Actual Time 6:21 AM PDT 7:39 PM PDT
Civil Twilight 5:54 AM PDT 8:05 PM PDT
Nautical Twilight 5:22 AM PDT 8:37 PM PDT
Astronomical Twilight 4:49 AM PDT 9:10 PM PDT
Moon 2:59 AM PDT 5:08 PM PDT
Length of Visible Light 14h 11m
Length of Day
13h 18m
Tomorrow will be 2m 4s shorter.
Waning Crescent, 14% of the Moon is Illuminated
Today
Waning Crescent
Aug 25
New
Sep 2
First Quarter
Sep 8
Full
Sep 15
Last Quarter

Today's Extremes

State Highs State Lows

Community

WunderPhotos

Upload Photos

1,745,947 photos uploaded!

Nearby

Air Quality

  Air Quality AQ Index Pollutant
Yesterday Good
OZONE
Yesterday Good
PM2.5
Current Good
PM2.5
Current Good
OZONE
Thursday Moderate
PM2.5
Friday Moderate
PM2.5
Saturday Moderate
PM2.5
Sunday Moderate
PM2.5
Monday Moderate
PM2.5

Snow Depth

Station Depth Elevation
Leavitt Lake 1 in 9400 ft
Leavitt Meadows 0 in 7200 ft
Summit Meadow 2 in 9122 ft
Blue Lakes 0 in 8000 ft
Monitor Pass 1 in 8350 ft

Earthquake Activity

City Distance Mag. Time & Date
King City, California 94 miles 2.7 10:26 PM PDT
2014-08-15
Malibu Beach, California 121 miles 3.4 10:03 AM PDT
2014-08-15
Kettleman City, California 46 miles 2.9 11:32 PM PDT
2014-08-14
King City, California 95 miles 2.9 8:01 PM PDT
2014-08-14
Minimum magnitude displayed is 2.5.

Coastal Water Temperatures

Place Temperature
No Stations Reporting

Nearby Weather Stations